createdAt,value
2017-04-03T14:17:59.309Z,19.50
2017-04-03T14:18:58.394Z,19.70
2017-04-03T14:19:56.774Z,19.70
2017-04-03T14:20:55.060Z,19.80
2017-04-03T14:21:53.461Z,19.80
2017-04-03T14:22:52.621Z,19.90
2017-04-03T14:23:51.011Z,19.90
2017-04-03T14:24:49.298Z,19.90
2017-04-03T14:25:47.610Z,19.70
2017-04-03T14:26:45.959Z,19.70
2017-04-03T14:27:45.087Z,19.50
2017-04-03T14:28:43.402Z,19.40
2017-04-03T14:29:41.810Z,19.30
2017-04-03T14:30:40.879Z,19.20
2017-04-03T14:31:39.255Z,19.20
2017-04-03T14:32:38.290Z,19.00
2017-04-03T14:33:37.369Z,19.00
2017-04-03T14:34:35.668Z,19.00
2017-04-03T14:35:34.754Z,19.00
2017-04-03T14:36:33.015Z,19.00
2017-04-03T14:37:32.085Z,19.10
2017-04-03T14:38:30.401Z,19.10
2017-04-03T14:39:28.671Z,19.00
2017-04-03T14:40:26.967Z,19.00
2017-04-03T14:41:25.282Z,19.10
2017-04-03T14:42:24.393Z,19.10
2017-04-03T14:43:22.677Z,19.10
2017-04-03T14:44:20.963Z,19.30
2017-04-03T14:45:19.251Z,19.30
2017-04-03T14:46:18.343Z,19.50
2017-04-03T14:47:17.397Z,19.50
2017-04-03T14:48:16.434Z,19.50
2017-04-03T14:49:14.714Z,19.40
2017-04-03T14:50:13.804Z,19.50
2017-04-03T14:51:12.081Z,19.50
2017-04-03T14:52:11.121Z,19.40
2017-04-03T14:53:09.385Z,19.40
2017-04-03T14:54:07.661Z,19.40
2017-04-03T14:55:06.701Z,19.40
2017-04-03T14:56:06.240Z,19.30
2017-04-03T14:57:04.600Z,19.30
2017-04-03T14:58:02.881Z,19.30
2017-04-03T14:59:01.239Z,19.20
2017-04-03T14:59:59.507Z,19.30
2017-04-03T15:00:57.850Z,19.30
2017-04-03T15:01:57.011Z,19.40
2017-04-03T15:02:56.130Z,19.30
2017-04-03T15:03:54.562Z,19.30
2017-04-03T15:04:53.650Z,19.30
2017-04-03T15:05:52.018Z,19.30
2017-04-03T15:06:51.050Z,19.20
2017-04-03T15:07:49.317Z,19.20
2017-04-03T15:08:48.370Z,19.00
2017-04-03T15:09:46.650Z,18.90
2017-04-03T15:10:45.743Z,18.90
2017-04-03T15:11:44.132Z,18.90
2017-04-03T15:12:43.307Z,19.10
2017-04-03T15:13:41.589Z,19.10
2017-04-03T15:14:39.930Z,19.20
2017-04-03T15:15:38.263Z,19.20
2017-04-03T15:16:37.383Z,19.00
2017-04-03T15:17:35.950Z,18.90
2017-04-03T15:18:34.381Z,19.00
2017-04-03T15:19:32.690Z,19.00
2017-04-03T15:20:31.030Z,18.90
2017-04-03T15:21:30.157Z,18.90
2017-04-03T15:22:28.482Z,18.90
2017-04-03T15:23:26.826Z,18.90
2017-04-03T15:24:26.008Z,18.60
2017-04-03T15:25:24.318Z,18.60
2017-04-03T15:26:22.853Z,18.50
2017-04-03T15:27:21.255Z,18.50
2017-04-03T15:28:19.586Z,18.60
2017-04-03T15:29:17.976Z,18.60
2017-04-03T15:30:16.372Z,18.70
2017-04-03T15:31:14.877Z,18.70
2017-04-03T15:32:13.209Z,18.80
2017-04-03T15:33:11.533Z,18.70
2017-04-03T15:34:09.870Z,18.80
2017-04-03T15:35:08.208Z,18.80
2017-04-03T15:36:06.509Z,18.90
2017-04-03T15:37:05.638Z,18.70
2017-04-03T15:38:04.791Z,18.70
2017-04-03T15:39:03.115Z,18.70
2017-04-03T15:40:02.160Z,18.60
2017-04-03T15:41:00.462Z,18.60
2017-04-03T15:41:58.750Z,18.60
2017-04-03T15:42:57.907Z,18.70
2017-04-03T15:43:56.205Z,18.70
2017-04-03T15:44:55.241Z,18.80
2017-04-03T15:45:53.574Z,18.80
2017-04-03T15:46:52.777Z,18.90
2017-04-03T15:47:51.858Z,18.90
2017-04-03T15:48:50.162Z,18.90
2017-04-03T15:49:48.583Z,18.90
2017-04-03T15:50:46.966Z,18.90
2017-04-03T15:51:45.290Z,18.90
2017-04-03T15:52:43.599Z,18.90
2017-04-03T15:53:42.665Z,18.90
2017-04-03T15:54:41.045Z,18.80
2017-04-03T15:55:39.363Z,18.80
2017-04-03T15:56:38.454Z,18.70
2017-04-03T15:57:36.730Z,18.70
2017-04-03T15:58:35.002Z,18.60
2017-04-03T15:59:33.279Z,18.40
2017-04-03T16:00:33.097Z,18.20
2017-04-03T16:01:31.463Z,18.20
2017-04-03T16:02:29.802Z,18.10
2017-04-03T16:03:28.077Z,18.00
2017-04-03T16:04:27.130Z,17.40
2017-04-03T16:05:25.406Z,17.40
2017-04-03T16:06:23.791Z,17.30
2017-04-03T16:07:22.931Z,17.20
2017-04-03T16:08:21.294Z,17.10
2017-04-03T16:09:19.804Z,17.10
2017-04-03T16:10:18.123Z,17.10
2017-04-03T16:11:17.306Z,17.00
2017-04-03T16:12:15.612Z,17.00
2017-04-03T16:13:13.881Z,16.90
2017-04-03T16:14:12.173Z,16.80
2017-04-03T16:15:10.470Z,16.70
2017-04-03T16:16:08.788Z,16.70
2017-04-03T16:17:07.238Z,16.70
2017-04-03T16:18:05.570Z,16.70
2017-04-03T16:19:03.858Z,16.70
2017-04-03T16:20:02.168Z,16.70
2017-04-03T16:21:01.220Z,16.90
2017-04-03T16:21:59.662Z,16.80
2017-04-03T16:22:58.863Z,16.90
2017-04-03T16:23:57.166Z,16.80
2017-04-03T16:24:55.448Z,16.90
2017-04-03T16:25:53.711Z,16.90
2017-04-03T16:26:52.083Z,16.90
2017-04-03T16:27:50.785Z,16.90
2017-04-03T16:28:49.913Z,16.90
2017-04-03T16:29:48.234Z,16.80
2017-04-03T16:30:47.369Z,16.90
2017-04-03T16:31:45.678Z,16.90
2017-04-03T16:32:44.002Z,16.90
2017-04-03T16:33:42.312Z,16.80
2017-04-03T16:34:40.590Z,16.70
2017-04-03T16:35:39.654Z,16.50
2017-04-03T16:36:37.995Z,16.50
2017-04-03T16:37:36.309Z,16.40
2017-04-03T16:38:34.586Z,16.40
2017-04-03T16:39:33.636Z,16.30
2017-04-03T16:40:31.952Z,16.30
2017-04-03T16:41:30.370Z,16.30
2017-04-03T16:42:28.645Z,16.30
2017-04-03T16:43:26.950Z,16.20
2017-04-03T16:44:26.063Z,16.10
2017-04-03T16:45:24.812Z,16.10
2017-04-03T16:46:23.116Z,16.10
2017-04-03T16:47:22.439Z,16.00
2017-04-03T16:48:20.719Z,16.00
2017-04-03T16:49:19.926Z,16.00
2017-04-03T16:50:18.211Z,16.00
2017-04-03T16:51:16.502Z,16.00
2017-04-03T16:52:15.578Z,16.00
2017-04-03T16:53:13.966Z,15.90
2017-04-03T16:54:12.239Z,15.90
2017-04-03T16:55:10.552Z,15.90
2017-04-03T16:56:08.850Z,15.90
2017-04-03T16:57:07.126Z,15.90
2017-04-03T16:58:06.221Z,15.80
2017-04-03T16:59:04.508Z,15.80
2017-04-03T17:00:02.849Z,15.80
2017-04-03T17:01:01.197Z,15.70
2017-04-03T17:01:59.504Z,15.70
2017-04-03T17:02:57.810Z,15.70
2017-04-03T17:03:56.284Z,15.70
2017-04-03T17:04:54.573Z,15.70
2017-04-03T17:05:52.854Z,15.60
2017-04-03T17:06:51.135Z,15.60
2017-04-03T17:07:49.475Z,15.60
2017-04-03T17:08:47.749Z,15.50
2017-04-03T17:09:46.112Z,15.40
2017-04-03T17:10:44.457Z,15.40
2017-04-03T17:11:43.525Z,15.30
2017-04-03T17:12:41.844Z,15.20
2017-04-03T17:13:40.122Z,15.20
2017-04-03T17:14:38.480Z,15.20
2017-04-03T17:15:36.763Z,15.20
2017-04-03T17:16:35.036Z,15.10
2017-04-03T17:17:33.326Z,15.10
2017-04-03T17:18:31.619Z,15.10
2017-04-03T17:19:29.912Z,15.00
2017-04-03T17:20:29.020Z,15.00
2017-04-03T17:21:27.315Z,14.90
2017-04-03T17:22:25.583Z,14.90
2017-04-03T17:23:23.868Z,14.90
2017-04-03T17:24:22.907Z,14.80
2017-04-03T17:25:21.211Z,14.80
2017-04-03T17:26:19.588Z,14.80
2017-04-03T17:27:18.659Z,14.70
2017-04-03T17:28:17.053Z,14.70
2017-04-03T17:29:15.327Z,14.70
2017-04-03T17:30:13.635Z,14.60
2017-04-03T17:31:11.902Z,14.60
2017-04-03T17:32:10.264Z,14.60
2017-04-03T17:33:08.550Z,14.50
2017-04-03T17:34:06.868Z,14.50
2017-04-03T17:35:05.231Z,14.40
2017-04-03T17:36:03.585Z,14.40
2017-04-03T17:37:01.870Z,14.30
2017-04-03T17:38:00.174Z,14.20
2017-04-03T17:38:58.503Z,14.20
2017-04-03T17:39:56.822Z,14.10
2017-04-03T17:40:55.119Z,14.10
2017-04-03T17:41:53.523Z,14.00
2017-04-03T17:42:51.808Z,14.00
2017-04-03T17:43:50.132Z,13.90
2017-04-03T17:44:48.428Z,13.90
2017-04-03T17:45:46.718Z,13.80
2017-04-03T17:46:45.058Z,13.80
2017-04-03T17:47:44.119Z,13.70
2017-04-03T17:48:42.431Z,13.60
2017-04-03T17:49:41.588Z,13.50
2017-04-03T17:50:39.913Z,13.50
2017-04-03T17:51:38.271Z,13.50
2017-04-03T17:52:36.587Z,13.40
2017-04-03T17:53:34.953Z,13.40
2017-04-03T17:54:33.245Z,13.30
2017-04-03T17:55:31.566Z,13.30
2017-04-03T17:56:29.845Z,13.20
2017-04-03T17:57:28.149Z,13.20
2017-04-03T17:58:26.516Z,13.10
2017-04-03T17:59:24.830Z,13.10
2017-04-03T18:00:24.014Z,12.90
2017-04-03T18:01:23.091Z,12.80
2017-04-03T18:02:22.242Z,12.80
2017-04-03T18:03:20.710Z,12.80
2017-04-03T18:04:19.032Z,12.70
2017-04-03T18:05:17.356Z,12.70
2017-04-03T18:06:15.690Z,12.60
2017-04-03T18:07:13.974Z,12.50
2017-04-03T18:08:12.287Z,12.50
2017-04-03T18:09:10.806Z,12.40
2017-04-03T18:10:09.139Z,12.40
2017-04-03T18:11:07.445Z,12.30
2017-04-03T18:12:05.734Z,12.30
2017-04-03T18:13:04.624Z,12.20
2017-04-03T18:14:03.695Z,12.20
2017-04-03T18:15:02.560Z,12.10
2017-04-03T18:16:01.556Z,12.10
2017-04-03T18:17:00.252Z,12.00
2017-04-03T18:17:59.626Z,12.00
2017-04-03T18:18:58.663Z,11.90
2017-04-03T18:19:56.954Z,11.90
2017-04-03T18:20:55.323Z,11.90
2017-04-03T18:21:53.656Z,11.80
2017-04-03T18:22:51.915Z,11.80
2017-04-03T18:23:50.190Z,11.70
2017-04-03T18:24:48.464Z,11.70
2017-04-03T18:25:46.787Z,11.70
2017-04-03T18:26:45.156Z,11.60
2017-04-03T18:27:43.530Z,11.60
2017-04-03T18:28:41.882Z,11.50
2017-04-03T18:29:40.198Z,11.40
2017-04-03T18:30:38.515Z,11.40
2017-04-03T18:31:36.827Z,11.30
2017-04-03T18:32:35.216Z,11.20
2017-04-03T18:33:33.518Z,11.30
2017-04-03T18:34:31.808Z,11.20
2017-04-03T18:35:30.095Z,11.20
2017-04-03T18:36:28.375Z,11.10
2017-04-03T18:37:26.668Z,11.10
2017-04-03T18:38:25.065Z,11.10
2017-04-03T18:39:23.371Z,11.00
2017-04-03T18:40:21.686Z,11.00
2017-04-03T18:41:19.966Z,10.90
2017-04-03T18:42:19.041Z,10.90
2017-04-03T18:43:18.146Z,10.80
2017-04-03T18:44:16.524Z,10.80
2017-04-03T18:45:15.627Z,10.80
2017-04-03T18:46:14.665Z,10.70
2017-04-03T18:47:13.154Z,10.70
2017-04-03T18:48:12.253Z,10.70
2017-04-03T18:49:10.549Z,10.60
2017-04-03T18:50:08.982Z,10.60
2017-04-03T18:51:07.461Z,10.60
2017-04-03T18:52:05.743Z,10.60
2017-04-03T18:53:04.828Z,10.40
2017-04-03T18:54:04.106Z,10.40
2017-04-03T18:55:03.177Z,10.40
2017-04-03T18:56:02.334Z,10.30
2017-04-03T18:57:01.406Z,10.30
2017-04-03T18:58:00.453Z,10.20
2017-04-03T18:58:59.486Z,10.20
2017-04-03T18:59:57.826Z,10.10
2017-04-03T19:00:56.182Z,10.10
2017-04-03T19:01:54.554Z,10.10
2017-04-03T19:02:52.885Z,10.00
2017-04-03T19:03:51.183Z,10.00
2017-04-03T19:04:49.455Z,10.00
2017-04-03T19:05:47.851Z,9.90
2017-04-03T19:06:46.162Z,9.90
2017-04-03T19:07:44.534Z,9.90
2017-04-03T19:08:42.841Z,9.90
2017-04-03T19:09:41.941Z,9.80
2017-04-03T19:10:40.338Z,9.80
2017-04-03T19:11:38.673Z,9.80
2017-04-03T19:12:36.974Z,9.80
2017-04-03T19:13:35.388Z,9.80
2017-04-03T19:14:33.844Z,9.80
2017-04-03T19:15:32.194Z,9.80
2017-04-03T19:16:31.287Z,9.70
2017-04-03T19:17:30.402Z,9.70
2017-04-03T19:18:29.503Z,9.70
2017-04-03T19:19:27.850Z,9.60
2017-04-03T19:20:26.205Z,9.60
2017-04-03T19:21:24.496Z,9.60
2017-04-03T19:22:22.772Z,9.60
2017-04-03T19:23:21.212Z,9.60
2017-04-03T19:24:19.550Z,9.60
2017-04-03T19:25:17.951Z,9.60
2017-04-03T19:26:16.252Z,9.60
2017-04-03T19:27:14.646Z,9.50
2017-04-03T19:28:12.936Z,9.60
2017-04-03T19:29:11.981Z,9.50
2017-04-03T19:30:10.326Z,9.50
2017-04-03T19:31:09.594Z,9.40
2017-04-03T19:32:08.675Z,9.40
2017-04-03T19:33:07.750Z,9.30
2017-04-03T19:34:07.017Z,9.40
2017-04-03T19:35:05.342Z,9.30
2017-04-03T19:36:04.401Z,9.30
2017-04-03T19:37:02.982Z,9.20
2017-04-03T19:38:01.529Z,9.20
2017-04-03T19:38:59.891Z,9.20
2017-04-03T19:39:59.242Z,9.10
2017-04-03T19:40:57.593Z,9.10
2017-04-03T19:41:55.919Z,9.10
2017-04-03T19:42:55.087Z,9.10
2017-04-03T19:43:53.390Z,9.00
2017-04-03T19:44:52.568Z,9.00
2017-04-03T19:45:50.882Z,9.00
2017-04-03T19:46:49.162Z,9.00
2017-04-03T19:47:47.501Z,9.00
2017-04-03T19:48:45.891Z,9.00
2017-04-03T19:49:44.193Z,9.00
2017-04-03T19:50:43.398Z,9.00
2017-04-03T19:51:41.767Z,8.90
2017-04-03T19:52:40.096Z,8.90
2017-04-03T19:53:39.142Z,8.90
2017-04-03T19:54:38.303Z,8.90
2017-04-03T19:55:36.593Z,8.80
2017-04-03T19:56:34.884Z,8.80
2017-04-03T19:57:33.947Z,8.80
2017-04-03T19:58:33.001Z,8.80
2017-04-03T19:59:31.321Z,8.80
2017-04-03T20:00:30.470Z,8.80
2017-04-03T20:01:28.747Z,8.70
2017-04-03T20:02:27.813Z,8.80
2017-04-03T20:03:26.911Z,8.70
2017-04-03T20:04:25.280Z,8.70
2017-04-03T20:05:23.655Z,8.70
2017-04-03T20:06:22.039Z,8.70
2017-04-03T20:07:20.326Z,8.60
2017-04-03T20:08:18.646Z,8.60
2017-04-03T20:09:17.987Z,8.60
2017-04-03T20:10:17.005Z,8.50
2017-04-03T20:11:16.099Z,8.50
2017-04-03T20:12:14.503Z,8.50
2017-04-03T20:13:12.814Z,8.50
2017-04-03T20:14:11.198Z,8.50
2017-04-03T20:15:10.292Z,8.40
2017-04-03T20:16:08.651Z,8.30
2017-04-03T20:17:07.034Z,8.30
2017-04-03T20:18:05.554Z,8.30
2017-04-03T20:19:03.864Z,8.30
2017-04-03T20:20:02.255Z,8.30
2017-04-03T20:21:01.435Z,8.20
2017-04-03T20:21:59.763Z,8.20
2017-04-03T20:22:58.319Z,8.20
2017-04-03T20:23:57.552Z,8.30
2017-04-03T20:24:56.667Z,8.20
2017-04-03T20:25:55.757Z,8.20
2017-04-03T20:26:54.215Z,8.20
2017-04-03T20:27:52.708Z,8.20
2017-04-03T20:28:51.927Z,8.20
2017-04-03T20:29:50.547Z,8.10
2017-04-03T20:30:49.718Z,8.10
2017-04-03T20:31:48.231Z,8.10
2017-04-03T20:32:46.651Z,8.10
2017-04-03T20:33:45.068Z,8.10
2017-04-03T20:34:43.510Z,8.10
2017-04-03T20:35:42.745Z,8.10
2017-04-03T20:36:41.824Z,8.10
2017-04-03T20:37:40.250Z,8.00
2017-04-03T20:38:39.409Z,8.00
2017-04-03T20:39:38.557Z,8.10
2017-04-03T20:40:36.924Z,8.00
2017-04-03T20:41:35.335Z,8.10
2017-04-03T20:42:33.824Z,8.00
2017-04-03T20:43:32.930Z,8.00
2017-04-03T20:44:32.049Z,8.00
2017-04-03T20:45:30.411Z,8.00
2017-04-03T20:46:28.709Z,8.00
2017-04-03T20:47:27.895Z,7.90
2017-04-03T20:48:26.257Z,7.90
2017-04-03T20:49:25.372Z,7.90
2017-04-03T20:50:23.675Z,7.90
2017-04-03T20:51:22.770Z,7.90
2017-04-03T20:52:21.058Z,7.80
2017-04-03T20:53:20.204Z,7.80
2017-04-03T20:54:18.491Z,7.80
2017-04-03T20:55:16.812Z,7.80
2017-04-03T20:56:15.158Z,7.80
2017-04-03T20:57:13.458Z,7.80
2017-04-03T20:58:11.747Z,7.80
2017-04-03T20:59:10.167Z,7.70
2017-04-03T21:00:08.564Z,7.70
2017-04-03T21:01:06.898Z,7.60
2017-04-03T21:02:05.271Z,7.60
2017-04-03T21:03:03.777Z,7.60
2017-04-03T21:04:02.097Z,7.60
2017-04-03T21:05:00.439Z,7.60
2017-04-03T21:05:58.732Z,7.50
2017-04-03T21:06:57.020Z,7.50
2017-04-03T21:07:55.435Z,7.50
2017-04-03T21:08:53.717Z,7.50
2017-04-03T21:09:52.286Z,7.50
2017-04-03T21:10:51.430Z,7.40
2017-04-03T21:11:49.779Z,7.40
2017-04-03T21:12:48.063Z,7.40
2017-04-03T21:13:46.382Z,7.40
2017-04-03T21:14:45.463Z,7.40
2017-04-03T21:15:43.781Z,7.30
2017-04-03T21:16:42.212Z,7.40
2017-04-03T21:17:40.462Z,7.40
2017-04-03T21:18:38.827Z,7.30
2017-04-03T21:19:37.924Z,7.30
2017-04-03T21:20:36.245Z,7.20
2017-04-03T21:21:34.536Z,7.30
2017-04-03T21:22:32.981Z,7.20
2017-04-03T21:23:31.561Z,7.30
2017-04-03T21:24:29.945Z,7.30
2017-04-03T21:25:28.242Z,7.30
2017-04-03T21:26:26.629Z,7.20
2017-04-03T21:27:24.918Z,7.20
2017-04-03T21:28:23.726Z,7.20
2017-04-03T21:29:22.006Z,7.20
2017-04-03T21:30:20.298Z,7.20
2017-04-03T21:31:18.611Z,7.20
2017-04-03T21:32:16.903Z,7.20
2017-04-03T21:33:15.411Z,7.20
2017-04-03T21:34:13.867Z,7.20
2017-04-03T21:35:13.033Z,7.10
2017-04-03T21:36:11.383Z,7.10
2017-04-03T21:37:09.926Z,7.10
2017-04-03T21:38:08.239Z,7.10
2017-04-03T21:39:06.601Z,7.10
2017-04-03T21:40:05.265Z,7.10
2017-04-03T21:41:03.570Z,7.10
2017-04-03T21:42:01.882Z,7.10
2017-04-03T21:43:00.311Z,7.10
2017-04-03T21:43:58.576Z,7.20
2017-04-03T21:44:56.844Z,7.20
2017-04-03T21:45:55.254Z,7.20
2017-04-03T21:46:54.751Z,7.20
2017-04-03T21:47:53.034Z,7.10
2017-04-03T21:48:51.307Z,7.20
2017-04-03T21:49:49.591Z,7.20
2017-04-03T21:50:47.897Z,7.20
2017-04-03T21:51:46.239Z,7.10
2017-04-03T21:52:45.276Z,7.10
2017-04-03T21:53:44.287Z,7.10
2017-04-03T21:54:42.555Z,7.10
2017-04-03T21:55:41.586Z,7.10
2017-04-03T21:56:39.941Z,7.00
2017-04-03T21:57:38.273Z,7.00
2017-04-03T21:58:36.552Z,7.00
2017-04-03T21:59:34.827Z,7.00
2017-04-03T22:00:33.362Z,7.00
2017-04-03T22:01:31.628Z,7.00
2017-04-03T22:02:29.935Z,7.00
2017-04-03T22:03:28.301Z,7.00
2017-04-03T22:04:26.553Z,7.00
2017-04-03T22:05:24.835Z,6.90
2017-04-03T22:06:23.134Z,6.90
2017-04-03T22:07:21.397Z,6.90
2017-04-03T22:08:19.668Z,6.90
2017-04-03T22:09:18.038Z,6.90
2017-04-03T22:10:16.350Z,6.90
2017-04-03T22:11:14.622Z,6.90
2017-04-03T22:12:12.962Z,6.80
2017-04-03T22:13:11.258Z,6.80
2017-04-03T22:14:09.527Z,6.80
2017-04-03T22:15:07.895Z,6.80
2017-04-03T22:16:06.161Z,6.80
2017-04-03T22:17:04.424Z,6.80
2017-04-03T22:18:02.706Z,6.80
2017-04-03T22:19:00.965Z,6.70
2017-04-03T22:19:59.202Z,6.70
2017-04-03T22:20:57.547Z,6.70
2017-04-03T22:21:55.814Z,6.70
2017-04-03T22:22:54.094Z,6.60
2017-04-03T22:23:52.350Z,6.60
2017-04-03T22:24:50.636Z,6.60
2017-04-03T22:25:54.488Z,6.60
2017-04-03T22:26:52.814Z,6.60
2017-04-03T22:27:51.067Z,6.60
2017-04-03T22:28:49.323Z,6.60
2017-04-03T22:29:47.628Z,6.60
2017-04-03T22:30:45.923Z,6.60
2017-04-03T22:31:44.179Z,6.50
2017-04-03T22:32:42.519Z,6.60
2017-04-03T22:33:40.786Z,6.50
2017-04-03T22:34:39.044Z,6.50
2017-04-03T22:35:38.077Z,6.50
2017-04-03T22:36:36.371Z,6.50
2017-04-03T22:37:34.698Z,6.50
2017-04-03T22:38:33.068Z,6.50
2017-04-03T22:39:31.532Z,6.50
2017-04-03T22:40:29.794Z,6.50
2017-04-03T22:41:28.043Z,6.40
2017-04-03T22:42:26.307Z,6.40
2017-04-03T22:43:24.642Z,6.40
2017-04-03T22:44:23.011Z,6.40
2017-04-03T22:45:21.295Z,6.40
2017-04-03T22:46:19.647Z,6.40
2017-04-03T22:47:17.913Z,6.40
2017-04-03T22:48:16.158Z,6.40
2017-04-03T22:49:14.403Z,6.40
2017-04-03T22:50:13.532Z,6.40
2017-04-03T22:51:11.788Z,6.40
2017-04-03T22:52:10.093Z,6.40
2017-04-03T22:53:08.418Z,6.40
2017-04-03T22:54:06.746Z,6.40
2017-04-03T22:55:05.016Z,6.40
2017-04-03T22:56:04.131Z,6.50
2017-04-03T22:57:02.390Z,6.40
2017-04-03T22:58:00.663Z,6.50
2017-04-03T22:58:58.942Z,6.50
2017-04-03T22:59:57.221Z,6.40
2017-04-03T23:00:56.246Z,6.40
2017-04-03T23:01:54.598Z,6.40
2017-04-03T23:02:53.623Z,6.40
2017-04-03T23:03:51.872Z,6.30
2017-04-03T23:04:50.133Z,6.40
2017-04-03T23:05:49.165Z,6.40
2017-04-03T23:06:47.544Z,6.30
2017-04-03T23:07:45.866Z,6.30
2017-04-03T23:08:44.156Z,6.30
2017-04-03T23:09:42.395Z,6.30
2017-04-03T23:10:40.662Z,6.30
2017-04-03T23:11:38.905Z,6.30
2017-04-03T23:12:37.914Z,6.30
2017-04-03T23:13:36.267Z,6.30
2017-04-03T23:14:34.561Z,6.10
2017-04-03T23:15:32.824Z,6.30
2017-04-03T23:16:31.862Z,6.30
2017-04-03T23:17:30.867Z,6.30
2017-04-03T23:18:29.121Z,6.30
2017-04-03T23:19:27.560Z,6.30
2017-04-03T23:20:25.904Z,6.30
2017-04-03T23:21:24.177Z,6.30
2017-04-03T23:22:22.466Z,6.30
2017-04-03T23:23:21.504Z,6.30
2017-04-03T23:24:19.768Z,6.20
2017-04-03T23:25:18.125Z,6.30
2017-04-03T23:26:16.434Z,6.30
2017-04-03T23:27:14.734Z,6.30
2017-04-03T23:28:13.041Z,6.30
2017-04-03T23:29:11.310Z,6.30
2017-04-03T23:30:09.587Z,6.30
2017-04-03T23:31:07.903Z,6.40
2017-04-03T23:32:06.165Z,6.40
2017-04-03T23:33:04.434Z,6.40
2017-04-03T23:34:02.708Z,6.40
2017-04-03T23:35:01.750Z,6.40
2017-04-03T23:36:00.054Z,6.40
2017-04-03T23:36:58.522Z,6.40
2017-04-03T23:37:57.544Z,6.30
2017-04-03T23:38:55.829Z,6.30
2017-04-03T23:39:54.077Z,6.30
2017-04-03T23:40:52.324Z,6.30
2017-04-03T23:41:50.619Z,6.30
2017-04-03T23:42:49.731Z,6.30
2017-04-03T23:43:48.106Z,6.20
2017-04-03T23:44:46.347Z,6.30
2017-04-03T23:45:45.402Z,6.20
2017-04-03T23:46:43.650Z,6.20
2017-04-03T23:47:41.926Z,6.20
2017-04-03T23:48:40.294Z,6.20
2017-04-03T23:49:38.541Z,6.20
2017-04-03T23:50:36.786Z,6.20
2017-04-03T23:51:35.061Z,6.20
2017-04-03T23:52:33.323Z,6.10
2017-04-03T23:53:31.619Z,6.10
2017-04-03T23:54:29.978Z,6.20
2017-04-03T23:55:28.217Z,6.20
2017-04-03T23:56:26.505Z,6.10
2017-04-03T23:57:24.759Z,6.10
2017-04-03T23:58:23.039Z,6.20
2017-04-03T23:59:21.362Z,6.10
